createdAt,value
2023-03-11T00:00:41.487Z,14.30
2023-03-11T00:03:08.268Z,14.04
2023-03-11T00:05:35.269Z,14.40
2023-03-11T00:08:02.090Z,14.26
2023-03-11T00:10:30.267Z,14.28
2023-03-11T00:12:57.198Z,14.26
2023-03-11T00:15:23.937Z,13.92
2023-03-11T00:17:50.700Z,14.07
2023-03-11T00:20:17.515Z,13.87
2023-03-11T00:22:44.242Z,13.75
2023-03-11T00:25:11.321Z,14.00
2023-03-11T00:27:38.086Z,13.77
2023-03-11T00:30:04.815Z,13.70
2023-03-11T00:32:31.655Z,13.66
2023-03-11T00:34:58.477Z,13.74
2023-03-11T00:37:25.395Z,13.88
2023-03-11T00:39:52.222Z,13.47
2023-03-11T00:42:18.963Z,13.48
2023-03-11T00:44:45.715Z,13.63
2023-03-11T00:47:12.539Z,13.30
2023-03-11T00:49:39.305Z,13.39
2023-03-11T00:52:06.044Z,13.28
2023-03-11T00:54:32.943Z,13.43
2023-03-11T00:56:59.802Z,13.43
2023-03-11T00:59:26.679Z,13.24
2023-03-11T01:01:53.453Z,13.40
2023-03-11T01:04:20.263Z,13.18
2023-03-11T01:06:47.058Z,13.07
2023-03-11T01:09:13.829Z,13.00
2023-03-11T01:11:40.571Z,13.10
2023-03-11T01:14:07.296Z,13.07
2023-03-11T01:16:34.068Z,12.93
2023-03-11T01:19:00.839Z,13.07
2023-03-11T01:21:27.661Z,13.23
2023-03-11T01:23:54.461Z,13.25
2023-03-11T01:26:21.196Z,12.85
2023-03-11T01:28:47.937Z,12.84
2023-03-11T01:31:14.750Z,13.03
2023-03-11T01:33:41.527Z,13.00
2023-03-11T01:36:08.362Z,12.91
2023-03-11T01:38:35.250Z,13.16
2023-03-11T01:41:02.004Z,13.04
2023-03-11T01:43:28.746Z,13.21
2023-03-11T01:45:56.164Z,13.25
2023-03-11T01:48:22.962Z,13.18
2023-03-11T01:50:49.759Z,12.73
2023-03-11T01:53:16.525Z,13.10
2023-03-11T01:55:43.265Z,13.19
2023-03-11T01:58:10.044Z,12.90
2023-03-11T02:00:36.818Z,12.76
2023-03-11T02:03:05.443Z,12.88
2023-03-11T02:05:33.058Z,12.72
2023-03-11T02:07:59.832Z,13.17
2023-03-11T02:10:26.578Z,12.78
2023-03-11T02:12:53.356Z,12.57
2023-03-11T02:15:20.147Z,12.64
2023-03-11T02:17:46.902Z,13.03
2023-03-11T02:20:13.737Z,12.76
2023-03-11T02:22:40.491Z,12.93
2023-03-11T02:25:07.779Z,12.86
2023-03-11T02:27:34.534Z,13.00
2023-03-11T02:30:01.373Z,12.92
2023-03-11T02:32:28.187Z,12.93
2023-03-11T02:34:55.011Z,13.00
2023-03-11T02:37:21.877Z,13.06
2023-03-11T02:39:48.640Z,12.81
2023-03-11T02:42:15.430Z,13.06
2023-03-11T02:44:42.192Z,12.90
2023-03-11T02:47:08.916Z,13.25
2023-03-11T02:49:35.740Z,13.16
2023-03-11T02:52:02.502Z,12.86
2023-03-11T02:54:29.257Z,13.09
2023-03-11T02:56:55.991Z,13.17
2023-03-11T02:59:22.754Z,12.93
2023-03-11T03:01:49.560Z,12.89
2023-03-11T03:04:16.322Z,13.05
2023-03-11T03:06:43.116Z,13.26
2023-03-11T03:09:10.007Z,14.42
2023-03-11T03:11:36.926Z,14.73
2023-03-11T03:14:03.671Z,14.94
2023-03-11T03:16:30.534Z,15.23
2023-03-11T03:18:57.335Z,15.48
2023-03-11T03:21:24.099Z,15.60
2023-03-11T03:23:50.843Z,15.91
2023-03-11T03:26:17.622Z,16.12
2023-03-11T03:28:44.391Z,16.17
2023-03-11T03:31:11.144Z,16.47
2023-03-11T03:33:37.876Z,16.53
2023-03-11T03:36:04.704Z,16.59
2023-03-11T03:38:31.436Z,16.79
2023-03-11T03:40:58.157Z,16.99
2023-03-11T03:43:25.162Z,17.13
2023-03-11T03:45:51.904Z,17.17
2023-03-11T03:48:18.689Z,17.26
2023-03-11T03:50:45.464Z,17.37
2023-03-11T03:53:12.191Z,17.49
2023-03-11T03:55:38.924Z,17.79
2023-03-11T03:58:05.678Z,17.69
2023-03-11T04:00:32.476Z,17.82
2023-03-11T04:02:59.232Z,17.75
2023-03-11T04:05:26.786Z,17.98
2023-03-11T04:07:53.528Z,18.09
2023-03-11T04:10:20.255Z,18.20
2023-03-11T04:12:47.048Z,18.28
2023-03-11T04:15:13.828Z,18.35
2023-03-11T04:17:40.610Z,18.47
2023-03-11T04:20:08.231Z,18.47
2023-03-11T04:22:34.973Z,18.69
2023-03-11T04:25:01.703Z,18.77
2023-03-11T04:27:28.553Z,18.83
2023-03-11T04:29:55.386Z,18.82
2023-03-11T04:32:22.916Z,18.82
2023-03-11T04:34:50.647Z,19.09
2023-03-11T04:37:17.413Z,19.05
2023-03-11T04:39:44.182Z,19.09
2023-03-11T04:42:13.986Z,19.18
2023-03-11T04:44:40.724Z,19.28
2023-03-11T04:47:07.531Z,19.32
2023-03-11T04:49:34.300Z,19.46
2023-03-11T04:52:01.076Z,19.55
2023-03-11T04:54:27.804Z,19.60
2023-03-11T04:56:54.612Z,19.72
2023-03-11T04:59:21.338Z,19.67
2023-03-11T05:01:48.135Z,19.84
2023-03-11T05:04:15.006Z,19.70
2023-03-11T05:06:41.770Z,19.88
2023-03-11T05:09:08.495Z,19.84
2023-03-11T05:11:35.286Z,19.94
2023-03-11T05:14:02.148Z,19.95
2023-03-11T05:16:28.871Z,20.02
2023-03-11T05:18:55.739Z,20.14
2023-03-11T05:21:22.633Z,20.28
2023-03-11T05:23:49.536Z,20.19
2023-03-11T05:26:16.290Z,20.29
2023-03-11T05:28:43.054Z,20.37
2023-03-11T05:31:10.012Z,20.32
2023-03-11T05:33:36.865Z,20.38
2023-03-11T05:36:03.678Z,20.51
2023-03-11T05:38:30.490Z,20.60
2023-03-11T05:40:57.241Z,20.65
2023-03-11T05:43:23.960Z,20.60
2023-03-11T05:45:50.688Z,20.71
2023-03-11T05:48:17.477Z,20.70
2023-03-11T05:50:44.208Z,20.79
2023-03-11T05:53:10.936Z,20.77
2023-03-11T05:55:38.766Z,20.78
2023-03-11T05:58:05.558Z,20.90
2023-03-11T06:00:32.320Z,20.93
2023-03-11T06:02:59.095Z,20.99
2023-03-11T06:05:25.990Z,21.00
2023-03-11T06:07:53.118Z,21.02
2023-03-11T06:10:19.862Z,21.07
2023-03-11T06:12:46.613Z,21.14
2023-03-11T06:15:13.367Z,21.17
2023-03-11T06:17:40.127Z,21.16
2023-03-11T06:20:07.251Z,21.23
2023-03-11T06:22:33.984Z,21.21
2023-03-11T06:25:00.789Z,21.33
2023-03-11T06:27:27.584Z,21.28
2023-03-11T06:29:54.626Z,21.42
2023-03-11T06:32:21.566Z,21.44
2023-03-11T06:34:48.331Z,21.50
2023-03-11T06:37:15.065Z,21.55
2023-03-11T06:39:41.866Z,21.49
2023-03-11T06:42:08.626Z,21.49
2023-03-11T06:44:35.377Z,21.46
2023-03-11T06:47:02.142Z,21.61
2023-03-11T06:49:28.914Z,21.68
2023-03-11T06:51:55.652Z,21.71
2023-03-11T06:54:22.837Z,21.69
2023-03-11T06:56:49.733Z,21.68
2023-03-11T06:59:16.753Z,21.73
2023-03-11T07:01:43.631Z,21.87
2023-03-11T07:04:10.421Z,21.84
2023-03-11T07:06:37.211Z,21.86
2023-03-11T07:09:03.978Z,21.90
2023-03-11T07:11:30.772Z,20.60
2023-03-11T07:13:57.571Z,19.31
2023-03-11T07:16:24.463Z,19.21
2023-03-11T07:18:51.309Z,19.18
2023-03-11T07:21:18.751Z,18.92
2023-03-11T07:23:45.650Z,18.65
2023-03-11T07:26:12.456Z,18.48
2023-03-11T07:28:39.303Z,18.37
2023-03-11T07:31:06.067Z,18.33
2023-03-11T07:33:34.303Z,18.37
2023-03-11T07:36:01.153Z,18.80
2023-03-11T07:38:27.975Z,19.32
2023-03-11T07:40:54.719Z,19.64
2023-03-11T07:43:21.443Z,19.89
2023-03-11T07:45:48.771Z,20.08
2023-03-11T07:48:15.527Z,20.13
2023-03-11T07:50:42.274Z,20.30
2023-03-11T07:53:09.104Z,20.41
2023-03-11T07:55:36.016Z,20.53
2023-03-11T07:58:02.737Z,20.68
2023-03-11T08:00:29.721Z,20.65
2023-03-11T08:02:56.503Z,20.89
2023-03-11T08:05:23.240Z,20.91
2023-03-11T08:07:50.072Z,20.95
2023-03-11T08:10:16.804Z,20.96
2023-03-11T08:12:43.555Z,21.11
2023-03-11T08:15:10.336Z,21.16
2023-03-11T08:17:37.124Z,21.13
2023-03-11T08:20:04.986Z,21.16
2023-03-11T08:22:31.799Z,21.32
2023-03-11T08:24:58.578Z,21.38
2023-03-11T08:27:25.344Z,21.42
2023-03-11T08:29:52.149Z,21.58
2023-03-11T08:32:18.922Z,21.64
2023-03-11T08:34:45.711Z,21.57
2023-03-11T08:37:12.682Z,21.60
2023-03-11T08:39:39.471Z,21.66
2023-03-11T08:42:06.208Z,21.63
2023-03-11T08:44:32.978Z,21.75
2023-03-11T08:46:59.911Z,21.78
2023-03-11T08:49:26.675Z,21.87
2023-03-11T08:51:53.455Z,21.84
2023-03-11T08:54:20.183Z,21.85
2023-03-11T08:56:47.831Z,21.83
2023-03-11T08:59:14.642Z,21.84
2023-03-11T09:01:42.472Z,21.40
2023-03-11T09:04:09.271Z,19.69
2023-03-11T09:06:36.037Z,19.04
2023-03-11T09:09:02.945Z,19.72
2023-03-11T09:11:29.702Z,19.08
2023-03-11T09:13:56.496Z,18.62
2023-03-11T09:16:23.350Z,18.43
2023-03-11T09:18:50.224Z,18.14
2023-03-11T09:21:17.139Z,18.02
2023-03-11T09:23:44.593Z,17.93
2023-03-11T09:26:11.489Z,17.61
2023-03-11T09:28:38.269Z,17.43
2023-03-11T09:31:05.072Z,17.35
2023-03-11T09:33:31.914Z,17.33
2023-03-11T09:35:58.739Z,17.46
2023-03-11T09:38:25.524Z,17.28
2023-03-11T09:40:52.633Z,17.32
2023-03-11T09:43:19.406Z,16.80
2023-03-11T09:45:46.181Z,16.84
2023-03-11T09:48:12.927Z,16.94
2023-03-11T09:50:40.528Z,16.71
2023-03-11T09:53:08.484Z,16.69
2023-03-11T09:55:37.154Z,16.46
2023-03-11T09:58:04.022Z,17.05
2023-03-11T10:00:30.769Z,17.78
2023-03-11T10:02:57.530Z,18.32
2023-03-11T10:05:24.366Z,18.54
2023-03-11T10:07:51.091Z,18.70
2023-03-11T10:10:17.833Z,18.98
2023-03-11T10:12:44.607Z,19.13
2023-03-11T10:15:11.856Z,19.27
2023-03-11T10:17:38.630Z,19.41
2023-03-11T10:20:05.471Z,19.53
2023-03-11T10:22:32.299Z,19.62
2023-03-11T10:24:59.054Z,19.82
2023-03-11T10:27:27.288Z,19.92
2023-03-11T10:29:54.162Z,19.97
2023-03-11T10:32:21.014Z,20.14
2023-03-11T10:34:48.167Z,20.16
2023-03-11T10:37:14.910Z,20.26
2023-03-11T10:39:41.701Z,20.25
2023-03-11T10:42:08.484Z,20.38
2023-03-11T10:44:35.221Z,20.40
2023-03-11T10:47:02.074Z,20.58
2023-03-11T10:49:28.874Z,20.53
2023-03-11T10:51:56.878Z,20.61
2023-03-11T10:54:23.675Z,20.70
2023-03-11T10:56:50.549Z,20.82
2023-03-11T10:59:17.287Z,20.84
2023-03-11T11:01:44.112Z,20.82
2023-03-11T11:04:10.927Z,20.92
2023-03-11T11:06:37.757Z,21.06
2023-03-11T11:09:04.593Z,21.09
2023-03-11T11:11:31.863Z,21.16
2023-03-11T11:13:58.617Z,21.19
2023-03-11T11:16:25.382Z,21.25
2023-03-11T11:18:52.141Z,21.21
2023-03-11T11:21:18.933Z,21.26
2023-03-11T11:23:45.666Z,21.30
2023-03-11T11:26:12.440Z,21.47
2023-03-11T11:28:39.174Z,21.49
2023-03-11T11:31:06.024Z,21.62
2023-03-11T11:33:32.852Z,21.65
2023-03-11T11:35:59.596Z,21.51
2023-03-11T11:38:26.372Z,21.73
2023-03-11T11:40:53.130Z,21.57
2023-03-11T11:43:19.870Z,21.63
2023-03-11T11:45:46.647Z,21.75
2023-03-11T11:48:13.482Z,21.90
2023-03-11T11:50:41.596Z,21.82
2023-03-11T11:53:08.382Z,21.86
2023-03-11T11:55:35.132Z,21.90
2023-03-11T11:58:01.878Z,21.96
2023-03-11T12:00:30.802Z,20.75
2023-03-11T12:02:57.600Z,19.47
2023-03-11T12:05:24.476Z,19.00
2023-03-11T12:07:51.267Z,19.33
2023-03-11T12:10:23.482Z,19.01
2023-03-11T12:12:50.685Z,18.74
2023-03-11T12:15:17.438Z,18.43
2023-03-11T12:17:44.199Z,18.17
2023-03-11T12:20:11.246Z,19.22
2023-03-11T12:22:38.023Z,19.87
2023-03-11T12:25:04.782Z,20.12
2023-03-11T12:27:31.514Z,20.34
2023-03-11T12:29:58.262Z,20.54
2023-03-11T12:32:25.137Z,20.77
2023-03-11T12:34:51.928Z,20.76
2023-03-11T12:37:18.648Z,20.85
2023-03-11T12:39:45.420Z,20.92
2023-03-11T12:42:12.213Z,20.98
2023-03-11T12:44:38.954Z,21.19
2023-03-11T12:47:05.785Z,21.26
2023-03-11T12:49:32.590Z,21.15
2023-03-11T12:51:59.348Z,21.30
2023-03-11T12:54:26.112Z,21.35
2023-03-11T12:56:52.844Z,21.42
2023-03-11T12:59:19.675Z,21.59
2023-03-11T13:01:46.546Z,21.57
2023-03-11T13:04:13.338Z,21.55
2023-03-11T13:06:40.087Z,21.78
2023-03-11T13:09:07.583Z,21.71
2023-03-11T13:11:34.379Z,21.68
2023-03-11T13:14:01.140Z,21.77
2023-03-11T13:16:28.195Z,21.76
2023-03-11T13:18:54.930Z,21.78
2023-03-11T13:21:21.680Z,21.82
2023-03-11T13:23:48.457Z,21.96
2023-03-11T13:26:15.205Z,21.64
2023-03-11T13:28:41.976Z,19.88
2023-03-11T13:31:08.954Z,19.04
2023-03-11T13:33:36.614Z,19.63
2023-03-11T13:36:03.933Z,19.03
2023-03-11T13:38:30.726Z,19.41
2023-03-11T13:40:58.122Z,20.19
2023-03-11T13:43:24.879Z,20.53
2023-03-11T13:45:51.700Z,20.83
2023-03-11T13:48:18.456Z,20.96
2023-03-11T13:50:45.371Z,21.05
2023-03-11T13:53:12.314Z,21.17
2023-03-11T13:55:40.217Z,21.27
2023-03-11T13:58:06.963Z,21.45
2023-03-11T14:00:33.893Z,21.46
2023-03-11T14:03:00.655Z,21.48
2023-03-11T14:05:27.388Z,21.53
2023-03-11T14:07:54.169Z,21.67
2023-03-11T14:10:20.913Z,21.64
2023-03-11T14:12:47.655Z,21.68
2023-03-11T14:15:14.423Z,21.71
2023-03-11T14:17:41.186Z,21.85
2023-03-11T14:20:09.325Z,21.89
2023-03-11T14:22:36.319Z,21.94
2023-03-11T14:25:03.156Z,20.96
2023-03-11T14:27:29.892Z,19.47
2023-03-11T14:29:56.714Z,18.76
2023-03-11T14:32:23.453Z,19.37
2023-03-11T14:34:50.212Z,19.01
2023-03-11T14:37:16.993Z,18.83
2023-03-11T14:39:46.274Z,18.91
2023-03-11T14:42:13.600Z,18.71
2023-03-11T14:44:40.437Z,19.51
2023-03-11T14:47:07.168Z,19.91
2023-03-11T14:49:33.920Z,20.18
2023-03-11T14:52:00.684Z,20.36
2023-03-11T14:54:27.422Z,20.57
2023-03-11T14:56:54.199Z,20.78
2023-03-11T14:59:22.053Z,20.89
2023-03-11T15:01:48.783Z,20.97
2023-03-11T15:04:16.127Z,21.08
2023-03-11T15:06:42.907Z,21.09
2023-03-11T15:09:09.662Z,21.23
2023-03-11T15:11:36.403Z,21.22
2023-03-11T15:14:03.147Z,21.34
2023-03-11T15:16:30.010Z,21.39
2023-03-11T15:18:56.842Z,21.37
2023-03-11T15:21:23.670Z,21.49
2023-03-11T15:23:50.493Z,21.49
2023-03-11T15:26:17.228Z,21.57
2023-03-11T15:28:43.994Z,21.66
2023-03-11T15:31:10.862Z,21.76
2023-03-11T15:33:37.610Z,21.79
2023-03-11T15:36:04.442Z,21.74
2023-03-11T15:38:31.202Z,21.81
2023-03-11T15:40:57.989Z,21.84
2023-03-11T15:43:24.833Z,21.98
2023-03-11T15:45:53.413Z,21.98
2023-03-11T15:48:20.203Z,22.07
2023-03-11T15:50:52.881Z,20.45
2023-03-11T15:53:20.941Z,19.13
2023-03-11T15:55:47.725Z,19.25
2023-03-11T15:58:14.524Z,19.46
2023-03-11T16:00:41.247Z,19.05
2023-03-11T16:03:08.048Z,19.11
2023-03-11T16:05:34.770Z,19.10
2023-03-11T16:08:01.568Z,19.79
2023-03-11T16:10:28.759Z,20.27
2023-03-11T16:12:55.996Z,20.48
2023-03-11T16:15:24.563Z,20.65
2023-03-11T16:17:51.412Z,20.77
2023-03-11T16:20:18.197Z,20.89
2023-03-11T16:22:44.936Z,21.12
2023-03-11T16:25:11.684Z,21.26
2023-03-11T16:27:38.458Z,21.12
2023-03-11T16:30:05.255Z,21.41
2023-03-11T16:32:32.057Z,21.38
2023-03-11T16:34:58.879Z,21.34
2023-03-11T16:37:25.634Z,21.45
2023-03-11T16:39:52.668Z,21.49
2023-03-11T16:42:19.431Z,21.65
2023-03-11T16:44:46.172Z,21.63
2023-03-11T16:47:12.920Z,21.73
2023-03-11T16:49:39.735Z,21.72
2023-03-11T16:52:06.495Z,21.82
2023-03-11T16:54:33.354Z,21.77
2023-03-11T16:57:00.347Z,21.89
2023-03-11T16:59:27.097Z,21.87
2023-03-11T17:01:53.897Z,22.08
2023-03-11T17:04:20.760Z,20.54
2023-03-11T17:06:47.523Z,18.91
2023-03-11T17:09:14.274Z,18.82
2023-03-11T17:11:41.007Z,19.60
2023-03-11T17:14:16.394Z,20.27
2023-03-11T17:16:44.039Z,20.65
2023-03-11T17:19:10.784Z,20.79
2023-03-11T17:21:37.582Z,21.17
2023-03-11T17:24:04.358Z,21.24
2023-03-11T17:26:31.542Z,21.30
2023-03-11T17:28:58.294Z,21.31
2023-03-11T17:31:25.133Z,21.36
2023-03-11T17:33:51.923Z,21.35
2023-03-11T17:36:18.666Z,21.44
2023-03-11T17:38:45.422Z,21.56
2023-03-11T17:41:12.650Z,21.65
2023-03-11T17:43:39.432Z,21.64
2023-03-11T17:46:06.192Z,21.74
2023-03-11T17:48:32.929Z,21.79
2023-03-11T17:50:59.661Z,21.87
2023-03-11T17:53:26.415Z,21.88
2023-03-11T17:55:53.962Z,21.90
2023-03-11T17:58:20.703Z,21.92
2023-03-11T18:00:47.453Z,19.56
2023-03-11T18:03:14.191Z,17.88
2023-03-11T18:05:40.928Z,18.72
2023-03-11T18:08:07.707Z,19.59
2023-03-11T18:10:34.463Z,20.26
2023-03-11T18:13:01.267Z,20.55
2023-03-11T18:15:28.169Z,20.83
2023-03-11T18:17:56.834Z,20.90
2023-03-11T18:20:23.658Z,21.11
2023-03-11T18:22:50.585Z,21.20
2023-03-11T18:25:17.338Z,21.24
2023-03-11T18:27:44.452Z,21.41
2023-03-11T18:30:11.270Z,21.41
2023-03-11T18:32:38.134Z,21.56
2023-03-11T18:35:04.934Z,21.62
2023-03-11T18:37:31.702Z,21.68
2023-03-11T18:39:58.553Z,21.65
2023-03-11T18:42:25.285Z,21.78
2023-03-11T18:44:52.080Z,21.87
2023-03-11T18:47:18.812Z,21.87
2023-03-11T18:49:46.336Z,21.89
2023-03-11T18:52:13.148Z,21.99
2023-03-11T18:54:39.893Z,20.93
2023-03-11T18:57:06.643Z,18.12
2023-03-11T18:59:33.386Z,17.13
2023-03-11T19:02:00.145Z,19.25
2023-03-11T19:04:28.332Z,19.90
2023-03-11T19:06:55.148Z,20.42
2023-03-11T19:09:21.920Z,20.74
2023-03-11T19:11:48.663Z,20.86
2023-03-11T19:14:15.434Z,21.24
2023-03-11T19:16:42.241Z,21.08
2023-03-11T19:19:11.333Z,21.20
2023-03-11T19:21:38.612Z,21.26
2023-03-11T19:24:05.339Z,21.31
2023-03-11T19:26:44.252Z,21.53
2023-03-11T19:29:12.483Z,21.43
2023-03-11T19:31:39.227Z,21.55
2023-03-11T19:34:05.970Z,21.64
2023-03-11T19:36:32.767Z,21.71
2023-03-11T19:38:59.524Z,21.72
2023-03-11T19:41:26.312Z,21.74
2023-03-11T19:43:53.225Z,21.79
2023-03-11T19:46:20.000Z,21.95
2023-03-11T19:48:46.866Z,22.02
2023-03-11T19:51:13.775Z,21.94
2023-03-11T19:53:41.509Z,19.91
2023-03-11T19:56:08.684Z,17.90
2023-03-11T19:58:35.482Z,18.21
2023-03-11T20:01:02.277Z,19.81
2023-03-11T20:03:29.074Z,20.27
2023-03-11T20:05:57.681Z,20.70
2023-03-11T20:08:24.505Z,20.76
2023-03-11T20:10:51.319Z,21.00
2023-03-11T20:13:18.189Z,21.09
2023-03-11T20:15:45.017Z,21.20
2023-03-11T20:18:11.883Z,21.19
2023-03-11T20:20:38.937Z,21.34
2023-03-11T20:23:05.731Z,21.42
2023-03-11T20:25:32.859Z,21.42
2023-03-11T20:27:59.652Z,21.57
2023-03-11T20:30:26.501Z,21.64
2023-03-11T20:32:54.184Z,21.63
2023-03-11T20:35:21.159Z,21.63
2023-03-11T20:37:48.013Z,21.68
2023-03-11T20:40:14.821Z,21.85
2023-03-11T20:42:42.994Z,21.93
2023-03-11T20:45:09.751Z,21.90
2023-03-11T20:47:36.696Z,21.88
2023-03-11T20:50:03.507Z,21.18
2023-03-11T20:52:35.476Z,18.35
2023-03-11T20:55:02.459Z,17.17
2023-03-11T20:57:29.330Z,19.17
2023-03-11T20:59:56.092Z,19.69
2023-03-11T21:02:22.979Z,20.27
2023-03-11T21:04:49.799Z,20.57
2023-03-11T21:07:16.566Z,20.80
2023-03-11T21:09:43.350Z,20.84
2023-03-11T21:12:10.451Z,21.04
2023-03-11T21:14:37.349Z,21.12
2023-03-11T21:17:04.138Z,21.20
2023-03-11T21:19:31.036Z,21.22
2023-03-11T21:21:58.156Z,21.36
2023-03-11T21:24:25.100Z,21.48
2023-03-11T21:26:51.856Z,21.58
2023-03-11T21:29:18.617Z,21.52
2023-03-11T21:31:45.573Z,21.58
2023-03-11T21:34:12.394Z,21.61
2023-03-11T21:36:39.267Z,21.75
2023-03-11T21:39:06.031Z,21.74
2023-03-11T21:41:32.827Z,21.85
2023-03-11T21:43:59.620Z,21.84
2023-03-11T21:46:26.599Z,21.84
2023-03-11T21:48:53.493Z,21.99
2023-03-11T21:51:20.235Z,19.75
2023-03-11T21:53:47.178Z,17.33
2023-03-11T21:56:14.064Z,18.23
2023-03-11T21:58:40.963Z,19.72
2023-03-11T22:01:08.125Z,20.23
2023-03-11T22:03:35.895Z,20.44
2023-03-11T22:06:02.951Z,20.85
2023-03-11T22:08:29.800Z,20.98
2023-03-11T22:10:56.705Z,21.13
2023-03-11T22:13:23.593Z,21.10
2023-03-11T22:15:50.468Z,21.29
2023-03-11T22:18:17.406Z,21.25
2023-03-11T22:20:44.356Z,21.47
2023-03-11T22:23:11.171Z,21.41
2023-03-11T22:25:37.952Z,21.71
2023-03-11T22:28:04.740Z,21.57
2023-03-11T22:30:31.593Z,21.78
2023-03-11T22:32:58.384Z,21.78
2023-03-11T22:35:25.138Z,21.83
2023-03-11T22:37:51.930Z,21.83
2023-03-11T22:40:18.708Z,21.90
2023-03-11T22:42:45.447Z,21.91
2023-03-11T22:45:12.352Z,21.97
2023-03-11T22:47:39.248Z,22.06
2023-03-11T22:50:06.142Z,20.40
2023-03-11T22:52:32.986Z,17.92
2023-03-11T22:54:59.882Z,17.54
2023-03-11T22:57:26.606Z,19.50
2023-03-11T22:59:53.365Z,20.18
2023-03-11T23:02:20.118Z,20.51
2023-03-11T23:04:46.890Z,20.68
2023-03-11T23:07:13.608Z,20.86
2023-03-11T23:09:42.873Z,20.98
2023-03-11T23:12:09.656Z,21.17
2023-03-11T23:14:44.657Z,21.22
2023-03-11T23:17:12.305Z,21.27
2023-03-11T23:19:39.176Z,21.36
2023-03-11T23:22:06.829Z,21.54
2023-03-11T23:24:33.951Z,21.63
2023-03-11T23:27:04.454Z,21.54
2023-03-11T23:29:31.234Z,21.59
2023-03-11T23:31:57.991Z,21.76
2023-03-11T23:34:24.736Z,21.94
2023-03-11T23:36:51.489Z,21.79
2023-03-11T23:39:18.318Z,21.97
2023-03-11T23:41:45.043Z,21.88
2023-03-11T23:44:11.843Z,21.97
2023-03-11T23:46:38.693Z,21.93
2023-03-11T23:49:05.445Z,21.98
2023-03-11T23:51:32.195Z,19.18
2023-03-11T23:53:58.962Z,17.23
2023-03-11T23:56:25.700Z,18.23
2023-03-11T23:58:52.574Z,19.49
